Time;durP1;ratioP1;P1;durP2;ratioP2;P2;SDS_P1;SDS_P2;PMS_P1;PMS_P2;Temp;Humidity;BMP_temperature;BMP_pressure;BME280_temperature;BME280_humidity;BME280_pressure;Samples;Min_cycle;Max_cycle;Signal;HPM_P1;HPM_P2
2022/08/26 00:01:55;;;;;;;7.28;2.20;;;;;;;25.28;55.49;101400.31;5027255;28;20050;-61
2022/08/26 00:04:24;;;;;;;6.45;2.05;;;;;;;25.25;55.49;101404.50;5026809;28;20069;-61
2022/08/26 00:06:55;;;;;;;8.18;2.20;;;;;;;25.28;55.07;101401.13;5036549;28;20096;-62
2022/08/26 00:09:24;;;;;;;7.47;2.95;;;;;;;25.29;55.00;101404.72;5046189;28;20061;-61
2022/08/26 00:11:52;;;;;;;16.65;2.78;;;;;;;25.21;55.38;101406.25;5046450;28;20414;-61
2022/08/26 00:14:21;;;;;;;6.22;2.47;;;;;;;25.12;55.34;101399.00;5045991;28;20049;-61
2022/08/26 00:16:55;;;;;;;5.88;2.58;;;;;;;25.16;55.30;101400.84;5034238;28;20138;-60
2022/08/26 00:19:23;;;;;;;4.50;2.25;;;;;;;25.15;55.66;101403.91;5026414;28;20046;-61
2022/08/26 00:21:50;;;;;;;9.32;2.47;;;;;;;25.16;55.10;101400.03;5026782;28;20515;-60
2022/08/26 00:24:21;;;;;;;6.90;3.13;;;;;;;25.14;55.35;101407.78;5026563;28;20049;-61
2022/08/26 00:26:50;;;;;;;6.55;2.60;;;;;;;25.10;55.37;101407.56;5026632;28;20076;-60
2022/08/26 00:29:18;;;;;;;10.80;3.05;;;;;;;25.06;55.62;101406.53;5026179;28;20080;-61
2022/08/26 00:31:49;;;;;;;7.63;2.45;;;;;;;25.07;55.38;101418.38;5026440;28;20050;-61
2022/08/26 00:34:16;;;;;;;6.93;2.80;;;;;;;25.07;55.42;101419.19;5041630;28;20079;-60
2022/08/26 00:36:46;;;;;;;8.20;2.38;;;;;;;25.05;55.72;101415.09;5046151;28;20490;-61
2022/08/26 00:39:18;;;;;;;7.15;2.70;;;;;;;25.02;55.70;101419.28;5045973;28;20113;-61
2022/08/26 00:41:49;;;;;;;7.85;2.70;;;;;;;25.03;55.36;101422.84;5031684;28;20050;-61
2022/08/26 00:44:18;;;;;;;7.78;3.50;;;;;;;25.00;55.63;101406.94;5025905;28;20049;-61
2022/08/26 00:46:50;;;;;;;7.43;2.30;;;;;;;24.96;55.76;101418.56;5026062;28;20435;-61
2022/08/26 00:49:22;;;;;;;7.78;3.40;;;;;;;24.96;55.34;101414.97;5026186;28;20080;-60
2022/08/26 00:51:53;;;;;;;9.23;3.00;;;;;;;24.95;55.01;101416.09;5026041;28;20504;-60
2022/08/26 00:54:24;;;;;;;7.25;2.78;;;;;;;24.97;55.66;101416.63;5026294;28;20060;-60
2022/08/26 00:56:58;;;;;;;13.82;2.88;;;;;;;24.94;55.37;101417.22;5030018;28;20049;-61
2022/08/26 00:59:27;;;;;;;9.45;3.08;;;;;;;24.93;55.79;101413.63;5045463;28;20053;-60
2022/08/26 01:02:00;;;;;;;9.68;3.38;;;;;;;24.90;55.58;101413.44;5045810;28;20065;-61
2022/08/26 01:04:31;;;;;;;8.40;2.65;;;;;;;24.89;55.65;101422.81;5037595;28;20046;-60
2022/08/26 01:06:58;;;;;;;5.93;2.25;;;;;;;24.85;55.95;101427.28;5030299;28;20084;-60
2022/08/26 01:09:27;;;;;;;11.32;4.00;;;;;;;24.84;55.69;101429.22;5029681;28;20081;-60
2022/08/26 01:12:00;;;;;;;7.60;2.10;;;;;;;24.83;55.45;101422.09;5030564;28;20049;-60
2022/08/26 01:14:34;;;;;;;8.13;2.80;;;;;;;24.83;55.40;101413.03;5041325;28;20057;-60
2022/08/26 01:17:05;;;;;;;9.77;2.95;;;;;;;24.84;55.58;101409.16;5049585;28;20077;-60
2022/08/26 01:19:41;;;;;;;10.90;2.85;;;;;;;24.82;55.28;101409.44;5049592;28;20049;-60
2022/08/26 01:22:12;;;;;;;7.25;2.42;;;;;;;24.81;55.53;101418.81;5047096;28;20070;-60
2022/08/26 01:24:42;;;;;;;6.93;2.50;;;;;;;24.77;55.51;101415.03;5029782;28;20057;-61
2022/08/26 01:27:13;;;;;;;9.07;2.53;;;;;;;24.71;56.33;101410.75;5029921;28;20046;-60
2022/08/26 01:29:44;;;;;;;8.80;2.47;;;;;;;24.70;55.60;101408.31;5029245;28;20053;-61
2022/08/26 01:32:17;;;;;;;8.00;2.80;;;;;;;24.72;55.74;101419.81;5029735;28;20077;-60
2022/08/26 01:34:47;;;;;;;6.45;2.72;;;;;;;24.72;55.65;101409.66;5029432;28;20088;-60
2022/08/26 01:37:18;;;;;;;9.57;2.70;;;;;;;24.73;55.63;101413.22;5029893;28;20056;-61
2022/08/26 01:39:50;;;;;;;9.13;2.90;;;;;;;24.71;55.75;101407.19;5029453;28;20053;-60
2022/08/26 01:42:21;;;;;;;6.50;2.65;;;;;;;24.72;55.29;101419.81;5029767;28;20412;-60
2022/08/26 01:44:53;;;;;;;7.75;2.50;;;;;;;24.70;55.69;101420.13;5029187;28;20076;-61
2022/08/26 01:47:26;;;;;;;6.20;2.90;;;;;;;24.65;55.84;101422.97;5048855;28;20054;-60
2022/08/26 01:49:59;;;;;;;5.00;2.22;;;;;;;24.61;55.76;101417.25;5049250;28;20108;-61
2022/08/26 01:52:33;;;;;;;7.53;2.85;;;;;;;24.57;56.16;101418.97;5049327;28;20056;-61
2022/08/26 01:55:02;;;;;;;7.20;2.17;;;;;;;24.53;56.26;101420.69;5045657;28;20050;-60
2022/08/26 01:57:30;;;;;;;6.97;2.80;;;;;;;24.52;56.16;101424.56;5029397;28;20053;-61
2022/08/26 02:00:01;;;;;;;7.70;3.22;;;;;;;24.53;56.36;101419.88;5028717;28;20419;-60
2022/08/26 02:02:29;;;;;;;6.40;2.67;;;;;;;24.53;55.97;101423.44;5029550;28;20042;-60
2022/08/26 02:04:59;;;;;;;10.05;2.65;;;;;;;24.52;56.15;101424.56;5029045;28;20046;-60
2022/08/26 02:07:28;;;;;;;8.50;3.20;;;;;;;24.49;56.03;101433.41;5029278;28;20050;-61
2022/08/26 02:09:56;;;;;;;6.18;2.40;;;;;;;24.47;56.16;101421.09;5028593;28;20519;-60
2022/08/26 02:12:27;;;;;;;8.75;2.25;;;;;;;24.44;56.41;101430.75;5028998;28;20077;-61
2022/08/26 02:15:00;;;;;;;7.65;2.38;;;;;;;24.44;56.27;101427.19;5028681;28;20085;-60
2022/08/26 02:17:33;;;;;;;7.07;2.47;;;;;;;24.42;56.22;101419.25;5027830;28;20077;-61
2022/08/26 02:20:02;;;;;;;8.88;3.05;;;;;;;24.42;56.04;101430.22;5028655;28;20057;-61
2022/08/26 02:22:31;;;;;;;7.57;3.17;;;;;;;24.41;56.14;101438.78;5028852;28;20045;-61
2022/08/26 02:25:01;;;;;;;6.03;2.30;;;;;;;24.40;56.56;101437.97;5028784;28;20050;-60
2022/08/26 02:27:33;;;;;;;5.78;2.03;;;;;;;24.39;56.08;101444.56;5028901;28;20046;-60
2022/08/26 02:30:06;;;;;;;7.03;2.67;;;;;;;24.41;56.14;101445.09;5028157;28;20061;-61
2022/08/26 02:32:35;;;;;;;6.85;2.50;;;;;;;24.39;56.32;101455.56;5028888;28;20084;-61
2022/08/26 02:35:02;;;;;;;4.82;1.88;;;;;;;24.37;56.25;101457.78;5028492;28;20042;-61
2022/08/26 02:37:31;;;;;;;10.50;2.83;;;;;;;24.34;56.00;101453.72;5028588;28;20061;-61
2022/08/26 02:40:00;;;;;;;5.72;2.13;;;;;;;24.34;56.54;101453.72;5028267;28;20049;-60
2022/08/26 02:42:31;;;;;;;8.32;2.13;;;;;;;24.33;56.00;101456.75;5028792;28;20049;-61
2022/08/26 02:44:59;;;;;;;8.52;2.10;;;;;;;24.30;56.33;101454.63;5027925;28;20109;-60
2022/08/26 02:47:27;;;;;;;9.48;2.47;;;;;;;24.29;56.25;101444.75;5028325;28;20061;-60
2022/08/26 02:49:55;;;;;;;8.77;2.55;;;;;;;24.27;56.47;101439.53;5027989;28;20077;-61
2022/08/26 02:52:24;;;;;;;5.85;2.15;;;;;;;24.28;55.85;101441.19;5028504;28;20076;-61
2022/08/26 02:54:51;;;;;;;5.90;2.17;;;;;;;24.29;55.99;101452.97;5028196;28;20050;-61
2022/08/26 02:57:20;;;;;;;4.82;2.15;;;;;;;24.26;55.90;101448.94;5028394;28;20133;-61
2022/08/26 02:59:50;;;;;;;6.03;2.08;;;;;;;24.25;56.08;101446.44;5027388;28;20054;-60
2022/08/26 03:02:17;;;;;;;8.48;2.15;;;;;;;24.25;56.43;101451.94;5028360;28;20046;-60
2022/08/26 03:04:45;;;;;;;6.25;1.83;;;;;;;24.23;56.60;101448.69;5028021;28;20100;-60
2022/08/26 03:07:27;;;;;;;5.22;1.85;;;;;;;24.21;55.93;101439.94;5028224;28;20145;-61
2022/08/26 03:09:55;;;;;;;9.00;2.20;;;;;;;24.20;56.18;101444.59;5027482;28;20093;-60
2022/08/26 03:12:24;;;;;;;6.53;2.70;;;;;;;24.14;56.26;101437.56;5047293;28;20113;-61
2022/08/26 03:14:53;;;;;;;8.32;2.65;;;;;;;24.19;56.57;101453.13;5047276;28;20045;-60
2022/08/26 03:17:21;;;;;;;5.85;2.13;;;;;;;24.17;56.13;101450.69;5047311;28;20084;-60
2022/08/26 03:19:49;;;;;;;4.90;2.75;;;;;;;24.17;56.30;101450.69;5041843;28;20093;-61
2022/08/26 03:22:24;;;;;;;7.97;2.50;;;;;;;24.16;56.13;101451.81;5027888;28;20060;-60
2022/08/26 03:24:54;;;;;;;7.95;2.50;;;;;;;24.14;56.21;101451.28;5027401;28;20065;-61
2022/08/26 03:27:21;;;;;;;7.45;2.30;;;;;;;24.13;56.50;101448.84;5027717;28;20092;-61
2022/08/26 03:32:40;;;;;;;10.50;2.15;;;;;;;24.10;56.45;101446.69;5027602;28;20056;-61
2022/08/26 03:35:08;;;;;;;8.73;2.70;;;;;;;24.08;56.54;101451.66;5027614;28;20056;-61
2022/08/26 03:37:36;;;;;;;4.72;1.83;;;;;;;24.06;56.40;101448.41;5027456;28;20073;-60
2022/08/26 03:40:08;;;;;;;6.07;1.98;;;;;;;24.05;56.14;101457.75;5027506;28;20057;-61
2022/08/26 03:42:37;;;;;;;5.60;2.22;;;;;;;24.03;56.65;101455.31;5027264;28;20056;-61
2022/08/26 03:45:07;;;;;;;6.53;2.53;;;;;;;24.02;56.81;101459.16;5040378;28;20042;-60
2022/08/26 03:47:34;;;;;;;4.88;2.13;;;;;;;23.99;56.74;101454.25;5039844;28;20475;-61
2022/08/26 03:50:08;;;;;;;5.95;1.90;;;;;;;23.95;56.98;101454.03;5026956;28;20056;-60
2022/08/26 03:52:36;;;;;;;8.57;3.17;;;;;;;23.93;57.14;101449.97;5027282;28;20054;-61
2022/08/26 03:55:11;;;;;;;5.50;2.10;;;;;;;23.91;57.22;101449.44;5026706;28;20105;-60
2022/08/26 03:57:38;;;;;;;5.35;2.67;;;;;;;23.87;57.12;101451.97;5027102;28;20046;-61
2022/08/26 04:00:13;;;;;;;10.50;2.20;;;;;;;23.87;57.59;101460.19;5026345;28;20050;-61
2022/08/26 04:02:47;;;;;;;10.15;2.72;;;;;;;23.84;57.03;101457.22;5028719;28;20092;-61
2022/08/26 04:05:19;;;;;;;4.40;1.85;;;;;;;23.85;56.87;101458.84;5032707;28;20045;-60
2022/08/26 04:07:47;;;;;;;7.82;2.25;;;;;;;23.82;57.03;101465.75;5046792;28;20057;-61
2022/08/26 04:10:20;;;;;;;7.75;2.30;;;;;;;23.80;56.97;101457.00;5031501;28;20485;-61
2022/08/26 04:12:56;;;;;;;9.43;2.42;;;;;;;23.66;57.58;101436.88;5026738;28;20061;-60
2022/08/26 04:15:26;;;;;;;7.85;2.10;;;;;;;23.77;57.04;101462.25;5026340;28;20056;-60
2022/08/26 04:17:54;;;;;;;7.07;2.20;;;;;;;23.76;57.17;101452.41;5034097;28;20053;-61
2022/08/26 04:20:26;;;;;;;6.68;2.47;;;;;;;23.77;57.35;101454.03;5046228;28;20046;-60
2022/08/26 04:22:54;;;;;;;6.00;1.90;;;;;;;23.76;57.59;101450.47;5046607;28;20108;-61
2022/08/26 04:25:22;;;;;;;8.38;2.63;;;;;;;23.74;57.38;101438.97;5045773;28;20076;-60
2022/08/26 04:27:51;;;;;;;6.07;1.73;;;;;;;23.73;57.65;101440.09;5046403;28;20418;-61
2022/08/26 04:30:19;;;;;;;4.88;2.15;;;;;;;23.73;57.37;101444.75;5045755;28;20049;-61
2022/08/26 04:32:47;;;;;;;6.35;2.10;;;;;;;23.71;57.63;101445.06;5044173;28;20079;-61
2022/08/26 04:35:15;;;;;;;10.57;2.47;;;;;;;23.65;57.70;101441.56;5025350;28;20053;-61
2022/08/26 04:37:45;;;;;;;6.13;2.35;;;;;;;23.64;57.88;101442.66;5033105;28;20045;-61
2022/08/26 04:40:13;;;;;;;6.97;2.25;;;;;;;23.61;57.98;101450.66;5044788;28;20050;-60
2022/08/26 04:42:41;;;;;;;5.65;2.13;;;;;;;23.63;57.92;101453.94;5045513;28;20116;-61
2022/08/26 04:45:10;;;;;;;8.13;2.45;;;;;;;23.62;57.95;101449.56;5044342;28;20095;-61
2022/08/26 04:47:38;;;;;;;5.95;2.03;;;;;;;23.59;57.80;101439.19;5045821;28;20061;-61
2022/08/26 04:50:07;;;;;;;5.60;1.90;;;;;;;23.60;57.85;101449.03;5045773;28;20053;-61
2022/08/26 04:52:37;;;;;;;7.15;1.90;;;;;;;23.57;58.04;101464.16;5046238;28;20085;-61
2022/08/26 04:55:07;;;;;;;5.03;1.65;;;;;;;23.56;57.63;101456.22;5026823;28;20085;-60
2022/08/26 04:57:35;;;;;;;6.97;1.70;;;;;;;23.57;57.54;101457.84;5026243;28;20104;-60
2022/08/26 05:00:04;;;;;;;4.47;1.90;;;;;;;23.55;57.87;101458.16;5025755;28;20092;-61
2022/08/26 05:02:33;;;;;;;8.70;2.33;;;;;;;23.51;57.58;101462.56;5026376;28;20056;-60
2022/08/26 05:05:00;;;;;;;2.92;1.40;;;;;;;23.52;58.24;101455.97;5025984;28;20065;-60
2022/08/26 05:07:30;;;;;;;5.97;2.00;;;;;;;23.51;57.90;101459.00;5026195;28;20054;-60
2022/08/26 05:09:59;;;;;;;4.78;1.83;;;;;;;23.49;58.16;101470.28;5025647;28;20058;-61
2022/08/26 05:12:28;;;;;;;5.68;1.50;;;;;;;23.49;58.27;101459.31;5025992;28;20046;-61
2022/08/26 05:14:56;;;;;;;3.92;1.40;;;;;;;23.48;58.05;101468.63;5025599;28;20590;-61
2022/08/26 05:17:26;;;;;;;6.47;1.95;;;;;;;23.43;58.13;101467.88;5025757;28;20084;-61
2022/08/26 05:19:54;;;;;;;8.70;2.17;;;;;;;23.42;58.60;101464.31;5025666;28;20056;-60
2022/08/26 05:22:22;;;;;;;4.93;1.85;;;;;;;23.41;58.48;101459.13;5025983;28;20058;-60
2022/08/26 05:24:49;;;;;;;5.47;1.70;;;;;;;23.40;58.37;101457.50;5026027;28;20065;-61
2022/08/26 05:27:18;;;;;;;5.70;1.60;;;;;;;23.40;58.48;101463.81;5026066;28;20145;-61
2022/08/26 05:29:47;;;;;;;7.63;1.63;;;;;;;23.41;58.02;101462.69;5025618;28;20054;-61
2022/08/26 05:32:21;;;;;;;5.15;2.00;;;;;;;23.41;58.13;101467.34;5026034;28;20061;-61
2022/08/26 05:34:54;;;;;;;3.97;1.60;;;;;;;23.38;58.23;101469.59;5025625;28;20053;-61
2022/08/26 05:37:21;;;;;;;6.95;1.95;;;;;;;23.36;57.97;101469.06;5035156;28;20056;-61
2022/08/26 05:39:49;;;;;;;8.65;2.10;;;;;;;23.37;58.32;101473.44;5045196;28;20132;-61
2022/08/26 05:42:18;;;;;;;9.90;1.80;;;;;;;23.35;58.64;101472.09;5044522;28;20388;-60
2022/08/26 05:44:52;;;;;;;7.72;2.05;;;;;;;23.32;58.32;101476.22;5045027;28;20076;-61
2022/08/26 05:47:23;;;;;;;;;;;;;;;23.31;58.49;101480.09;5045697;28;20045;-61
2022/08/26 05:49:50;;;;;;;5.50;2.00;;;;;;;23.29;58.44;101481.47;5035875;28;19921;-61
2022/08/26 05:52:18;;;;;;;5.45;1.88;;;;;;;;;;5028399;28;20511;-60
2022/08/26 05:54:46;;;;;;;5.50;1.65;;;;;;;23.27;58.66;101486.44;5029157;28;20108;-61
2022/08/26 05:57:14;;;;;;;7.18;1.92;;;;;;;;;;5029490;28;20053;-60
2022/08/26 05:59:41;;;;;;;4.70;1.40;;;;;;;23.24;58.88;101489.78;5028569;28;20423;-61
2022/08/26 06:02:10;;;;;;;4.63;1.67;;;;;;;23.23;58.86;101490.88;5029256;28;20054;-61
2022/08/26 06:04:40;;;;;;;7.63;1.73;;;;;;;23.22;59.05;101500.22;5043416;28;20056;-61
2022/08/26 06:07:09;;;;;;;11.13;1.95;;;;;;;23.20;58.64;101496.94;5043150;28;20451;-61
2022/08/26 06:09:40;;;;;;;6.80;1.50;;;;;;;23.20;59.15;101499.69;5028647;28;20088;-61
2022/08/26 06:12:08;;;;;;;10.15;1.95;;;;;;;23.20;59.11;101505.16;5031491;28;20049;-61
2022/08/26 06:14:36;;;;;;;5.93;1.58;;;;;;;23.18;58.91;101499.16;5048374;28;20081;-61
2022/08/26 06:17:04;;;;;;;7.85;2.25;;;;;;;23.16;59.13;101506.84;5039415;28;20089;-61
2022/08/26 06:19:33;;;;;;;5.05;1.70;;;;;;;23.15;59.23;101506.03;5028830;28;20567;-61
2022/08/26 06:25:36;;;;;;;5.57;1.77;;;;;;;23.16;58.89;101512.34;5029215;28;20060;-60
2022/08/26 06:27:36;;;;;;;5.97;1.95;;;;;;;23.16;59.06;101518.66;5028652;28;20054;-60
2022/08/26 06:30:05;;;;;;;5.70;1.67;;;;;;;23.15;59.25;101516.19;5028138;28;20061;-62
2022/08/26 06:32:32;;;;;;;5.70;1.73;;;;;;;23.13;59.03;101512.91;5039191;28;20077;-61
2022/08/26 06:35:02;;;;;;;5.30;1.45;;;;;;;23.13;58.83;101510.19;5048143;28;20049;-61
2022/08/26 06:37:30;;;;;;;5.85;1.52;;;;;;;23.14;58.74;101517.31;5045002;28;20088;-61
2022/08/26 06:39:59;;;;;;;6.78;2.00;;;;;;;23.13;58.74;101516.47;5028128;28;20058;-60
2022/08/26 06:42:27;;;;;;;3.33;1.17;;;;;;;23.11;59.06;101520.63;5032984;28;20128;-61
2022/08/26 06:44:55;;;;;;;5.40;1.65;;;;;;;23.10;58.82;101522.53;5047795;28;20076;-61
2022/08/26 06:47:23;;;;;;;6.53;1.65;;;;;;;23.09;59.23;101523.66;5048106;28;20053;-61
2022/08/26 06:49:51;;;;;;;3.88;1.52;;;;;;;23.08;58.83;101523.94;5028665;28;20076;-61
2022/08/26 06:52:20;;;;;;;5.30;1.33;;;;;;;23.05;59.19;101522.59;5034580;28;20056;-60
2022/08/26 06:54:51;;;;;;;7.78;1.10;;;;;;;23.05;59.05;101520.66;5047999;28;20072;-61
2022/08/26 06:57:19;;;;;;;6.95;1.60;;;;;;;23.05;59.29;101526.16;5047958;28;20054;-61
2022/08/26 06:59:47;;;;;;;4.60;1.60;;;;;;;23.04;59.10;101532.75;5047196;28;20136;-62
2022/08/26 07:02:18;;;;;;;7.05;1.92;;;;;;;23.03;58.99;101535.78;5039912;28;20081;-60
2022/08/26 07:04:47;;;;;;;6.15;1.20;;;;;;;23.01;59.43;101532.50;5027924;28;20050;-60
2022/08/26 07:07:17;;;;;;;4.80;1.50;;;;;;;22.98;59.48;101525.69;5028121;28;20169;-61
2022/08/26 07:09:50;;;;;;;4.55;1.40;;;;;;;22.98;59.31;101522.94;5027776;28;20053;-61
2022/08/26 07:12:19;;;;;;;4.72;1.45;;;;;;;23.00;59.00;101525.38;5027981;28;20096;-61
2022/08/26 07:14:47;;;;;;;5.25;1.83;;;;;;;23.01;59.03;101529.75;5027412;28;20053;-60
2022/08/26 07:17:15;;;;;;;6.38;1.50;;;;;;;23.01;59.09;101540.72;5027656;28;20081;-61
2022/08/26 07:19:43;;;;;;;4.57;1.60;;;;;;;23.01;58.78;101532.50;5027583;28;20081;-60
2022/08/26 07:22:10;;;;;;;5.15;1.73;;;;;;;23.01;59.04;101529.75;5027987;28;20085;-60
2022/08/26 07:24:40;;;;;;;5.38;2.17;;;;;;;23.01;59.13;101535.25;5027457;28;20050;-61
2022/08/26 07:27:13;;;;;;;5.72;1.50;;;;;;;23.01;58.88;101540.72;5027475;28;20056;-61
2022/08/26 07:29:42;;;;;;;6.15;1.55;;;;;;;22.97;59.42;101540.50;5026939;28;20057;-61
2022/08/26 07:32:11;;;;;;;6.05;1.48;;;;;;;22.95;59.26;101539.13;5027612;28;20054;-61
2022/08/26 07:34:40;;;;;;;6.45;1.20;;;;;;;22.96;59.12;101546.25;5027354;28;20061;-61
2022/08/26 07:37:08;;;;;;;6.40;1.40;;;;;;;22.93;59.09;101538.63;5027674;28;20407;-61
2022/08/26 07:39:37;;;;;;;4.25;1.48;;;;;;;22.94;59.17;101543.00;5027106;28;20053;-61
2022/08/26 07:42:08;;;;;;;5.07;1.55;;;;;;;22.94;59.13;101541.06;5027421;28;20050;-61
2022/08/26 07:44:38;;;;;;;8.20;1.38;;;;;;;22.97;59.46;101537.75;5027218;28;20046;-61
2022/08/26 07:47:07;;;;;;;7.13;2.10;;;;;;;22.98;59.10;101547.59;5027015;28;20046;-61
2022/08/26 07:49:52;;;;;;;8.30;2.15;;;;;;;22.98;59.31;101561.31;5026935;28;20049;-61
2022/08/26 07:52:20;;;;;;;8.65;2.03;;;;;;;22.94;59.24;101556.69;5028266;28;20053;-60
2022/08/26 07:54:54;;;;;;;7.05;1.67;;;;;;;22.91;59.15;101555.34;5046618;28;20045;-60
2022/08/26 07:57:21;;;;;;;5.70;1.75;;;;;;;22.89;59.46;101554.00;5046881;28;20056;-60
2022/08/26 07:59:52;;;;;;;7.57;1.50;;;;;;;22.89;59.24;101563.03;5042719;28;20045;-61
2022/08/26 08:02:22;;;;;;;6.93;1.40;;;;;;;22.85;59.31;101561.97;5026767;28;20050;-60
2022/08/26 08:08:31;;;;;;;4.68;1.23;;;;;;;22.87;59.00;101570.72;5032769;28;20118;-60
2022/08/26 08:10:59;;;;;;;5.35;1.52;;;;;;;22.87;59.33;101562.50;5027733;28;20081;-60
2022/08/26 08:13:27;;;;;;;7.35;1.30;;;;;;;22.89;58.94;101557.56;5026820;28;20050;-61
2022/08/26 08:15:56;;;;;;;7.22;1.63;;;;;;;22.91;59.11;101560.00;5025404;28;20053;-60
2022/08/26 08:18:24;;;;;;;3.35;1.23;;;;;;;22.89;59.28;101563.03;5026783;28;20080;-61
2022/08/26 08:20:52;;;;;;;6.30;1.67;;;;;;;22.85;59.02;101559.22;5026453;28;20050;-60
2022/08/26 08:23:32;;;;;;;7.32;1.48;;;;;;;22.84;59.20;101557.59;5026660;28;20056;-60
2022/08/26 08:26:01;;;;;;;5.57;1.42;;;;;;;22.87;58.82;101567.16;5026443;28;20050;-60
2022/08/26 08:28:29;;;;;;;3.63;1.42;;;;;;;22.87;59.12;101567.16;5026328;28;20080;-60
2022/08/26 08:30:58;;;;;;;4.57;1.20;;;;;;;22.88;59.16;101561.41;5026154;28;20439;-61
2022/08/26 08:33:26;;;;;;;2.85;1.23;;;;;;;22.89;58.89;101559.47;5026671;28;20078;-60
2022/08/26 08:35:54;;;;;;;4.10;1.30;;;;;;;22.89;59.12;101564.97;5026346;28;20046;-60
2022/08/26 08:38:22;;;;;;;7.40;1.80;;;;;;;22.88;58.88;101577.84;5026546;28;20145;-60
2022/08/26 08:40:50;;;;;;;4.55;1.33;;;;;;;22.86;58.86;101577.31;5026109;28;20117;-60
2022/08/26 08:43:29;;;;;;;4.90;1.58;;;;;;;22.85;58.65;101578.41;5026219;28;20073;-60
2022/08/26 08:46:03;;;;;;;4.05;1.13;;;;;;;22.84;58.45;101565.81;5025760;28;20049;-60
2022/08/26 08:48:35;;;;;;;6.18;1.58;;;;;;;22.86;58.48;101563.63;5026288;28;20050;-60
2022/08/26 08:51:09;;;;;;;5.72;1.63;;;;;;;22.76;58.31;101547.22;5025849;28;20057;-61
2022/08/26 08:53:41;;;;;;;6.72;2.22;;;;;;;22.87;58.14;101570.72;5026224;28;20173;-61
2022/08/26 08:56:19;;;;;;;5.53;1.35;;;;;;;22.89;57.83;101570.44;5026451;28;20072;-60
2022/08/26 08:58:53;;;;;;;5.00;1.48;;;;;;;22.92;58.13;101578.09;5025941;28;20080;-62
2022/08/26 09:01:41;;;;;;;2.80;1.15;;;;;;;22.92;57.59;101572.59;5025642;28;20109;-62
2022/08/26 09:04:28;;;;;;;4.00;1.80;;;;;;;22.91;57.72;101581.94;5026105;28;20133;-61
2022/08/26 09:06:59;;;;;;;4.13;1.63;;;;;;;22.91;58.01;101581.94;5026156;28;20069;-61
2022/08/26 09:09:32;;;;;;;3.30;1.33;;;;;;;22.87;57.69;101580.88;5025610;28;20069;-61
2022/08/26 09:12:01;;;;;;;4.25;1.30;;;;;;;22.86;58.03;101580.06;5044078;28;20080;-61
2022/08/26 09:14:31;;;;;;;3.75;1.23;;;;;;;22.86;57.92;101576.50;5037910;28;20109;-62
2022/08/26 09:17:08;;;;;;;5.47;2.13;;;;;;;22.85;57.85;101583.91;5025136;28;20057;-61
2022/08/26 09:19:42;;;;;;;5.65;1.85;;;;;;;22.83;57.76;101577.06;5025923;28;20053;-61
2022/08/26 09:22:10;;;;;;;5.57;1.25;;;;;;;22.84;57.71;101589.66;5025980;28;20057;-61
2022/08/26 09:24:40;;;;;;;6.65;1.65;;;;;;;22.82;57.99;101580.91;5025895;28;20045;-61
2022/08/26 09:27:36;;;;;;;4.40;1.23;;;;;;;22.83;57.56;101586.13;5028898;28;20065;-61
2022/08/26 09:30:05;;;;;;;7.63;1.42;;;;;;;22.85;57.90;101585.81;5028887;28;20459;-61
2022/08/26 09:32:35;;;;;;;5.50;1.65;;;;;;;22.87;57.67;101586.34;5029951;28;20050;-61
2022/08/26 09:35:06;;;;;;;3.88;1.40;;;;;;;22.88;57.30;101585.25;5029475;28;20053;-62
2022/08/26 09:37:37;;;;;;;4.30;1.58;;;;;;;22.88;57.66;101586.06;5029641;28;20053;-62
2022/08/26 09:40:29;;;;;;;5.63;1.63;;;;;;;22.88;57.13;101588.00;5029311;28;20054;-62
2022/08/26 09:43:15;;;;;;;5.05;1.35;;;;;;;22.87;57.40;101589.91;5039754;28;20050;-61
2022/08/26 09:45:53;;;;;;;4.82;1.33;;;;;;;22.88;57.51;101596.22;5048996;28;20054;-61
2022/08/26 09:48:33;;;;;;;5.40;1.50;;;;;;;22.86;57.54;101595.69;5047708;28;20484;-61
2022/08/26 09:51:05;;;;;;;5.85;1.65;;;;;;;22.84;57.74;101598.72;5048983;28;20054;-61
2022/08/26 09:53:49;;;;;;;3.97;1.27;;;;;;;22.76;57.79;101582.84;5043489;28;20096;-61
2022/08/26 09:56:26;;;;;;;8.85;2.15;;;;;;;22.84;57.63;101608.84;5029318;28;20080;-61
2022/08/26 09:58:56;;;;;;;8.20;1.67;;;;;;;22.80;57.55;101600.38;5029048;28;20073;-62
2022/08/26 10:01:30;;;;;;;5.28;1.42;;;;;;;22.81;57.58;101598.47;5028889;28;20046;-62
2022/08/26 10:04:09;;;;;;;4.40;1.25;;;;;;;22.79;57.74;101596.00;5029258;28;20061;-62
2022/08/26 10:06:42;;;;;;;8.98;1.27;;;;;;;22.81;57.99;101590.25;5029204;28;20054;-62
2022/08/26 10:09:13;;;;;;;7.72;1.90;;;;;;;22.80;57.71;101597.66;5028959;28;20081;-61
2022/08/26 10:11:45;;;;;;;6.15;2.33;;;;;;;22.82;57.81;101597.38;5029072;28;20105;-62
2022/08/26 10:14:19;;;;;;;9.70;1.52;;;;;;;22.81;57.71;101587.50;5028910;28;20060;-62
2022/08/26 10:16:51;;;;;;;6.38;2.13;;;;;;;22.84;57.74;101597.91;5028362;28;20069;-62
2022/08/26 10:19:25;;;;;;;6.07;1.40;;;;;;;22.85;57.58;101591.31;5028697;28;20052;-62
2022/08/26 10:22:18;;;;;;;6.13;2.00;;;;;;;22.84;57.68;101581.44;5029118;28;20050;-62
2022/08/26 10:24:50;;;;;;;8.20;2.00;;;;;;;22.84;57.42;101592.41;5028646;28;20088;-62
2022/08/26 10:27:30;;;;;;;4.95;1.85;;;;;;;22.82;57.72;101587.22;5028732;28;20066;-62
2022/08/26 10:30:05;;;;;;;5.43;2.08;;;;;;;22.80;57.65;101585.88;5028153;28;20054;-62
2022/08/26 10:32:37;;;;;;;5.40;1.35;;;;;;;22.79;57.54;101581.44;5028686;28;20061;-62
2022/08/26 10:35:12;;;;;;;6.68;1.88;;;;;;;22.81;57.76;101584.75;5028482;28;20436;-62
2022/08/26 10:37:45;;;;;;;6.25;1.40;;;;;;;22.80;57.42;101580.38;5027524;28;20053;-62
2022/08/26 10:40:18;;;;;;;7.22;1.60;;;;;;;22.81;57.64;101585.56;5028471;28;20060;-62
2022/08/26 10:42:52;;;;;;;9.35;2.00;;;;;;;22.82;57.54;101587.22;5028350;28;20069;-62
2022/08/26 10:45:24;;;;;;;5.18;2.05;;;;;;;22.82;57.52;101589.97;5027969;28;20046;-61
2022/08/26 10:47:56;;;;;;;5.80;1.50;;;;;;;22.81;57.63;101592.97;5028411;28;20073;-61
2022/08/26 10:50:30;;;;;;;8.15;1.75;;;;;;;22.80;57.67;101588.59;5028019;28;20093;-62
2022/08/26 10:53:05;;;;;;;5.93;1.50;;;;;;;22.79;57.70;101578.72;5028251;28;20475;-62
2022/08/26 10:55:42;;;;;;;5.85;1.80;;;;;;;22.82;57.65;101589.13;5028156;28;20093;-62
2022/08/26 10:58:26;;;;;;;6.53;1.50;;;;;;;22.81;57.19;101585.56;5027694;28;20570;-62
2022/08/26 11:03:59;;;;;;;5.22;1.50;;;;;;;22.83;57.48;101591.59;5027918;28;20062;-62
2022/08/26 11:06:30;;;;;;;6.78;2.03;;;;;;;22.82;57.63;101587.22;5028075;28;20054;-62
2022/08/26 11:09:00;;;;;;;6.85;1.88;;;;;;;22.72;57.48;101573.56;5027616;28;20053;-61
2022/08/26 11:11:46;;;;;;;6.85;1.30;;;;;;;22.84;57.32;101589.66;5042845;28;20042;-62
2022/08/26 11:14:36;;;;;;;8.83;2.07;;;;;;;22.80;57.37;101586.69;5047717;28;20041;-62
2022/08/26 11:17:56;;;;;;;6.43;1.70;;;;;;;22.82;57.53;101589.97;5046938;28;20072;-62
2022/08/26 11:20:39;;;;;;;5.13;1.13;;;;;;;22.81;57.34;101579.28;5033845;28;20149;-62
2022/08/26 11:23:45;;;;;;;11.32;3.00;;;;;;;22.82;57.19;101589.97;5027726;28;20052;-61
2022/08/26 11:26:17;;;;;;;11.43;2.35;;;;;;;22.79;57.07;101576.81;5027745;28;20400;-62
2022/08/26 11:29:05;;;;;;;8.10;2.25;;;;;;;22.82;57.11;101584.47;5027338;28;20053;-62
2022/08/26 11:31:55;;;;;;;5.70;1.58;;;;;;;22.82;57.39;101589.13;5027296;28;20050;-62
2022/08/26 11:34:52;;;;;;;5.88;1.58;;;;;;;22.79;57.29;101600.63;5027499;28;20083;-61
2022/08/26 11:37:24;;;;;;;6.03;1.40;;;;;;;22.76;57.13;101590.25;5027177;28;20484;-61
2022/08/26 11:39:54;;;;;;;3.33;1.50;;;;;;;22.76;57.29;101606.69;5031195;28;20056;-61
2022/08/26 11:42:31;;;;;;;6.97;1.15;;;;;;;22.74;57.20;101599.56;5047062;28;20461;-61
2022/08/26 11:45:01;;;;;;;5.88;1.35;;;;;;;22.73;57.21;101597.13;5045505;28;20057;-62
2022/08/26 11:47:32;;;;;;;4.82;1.00;;;;;;;22.73;57.17;101602.59;5046666;28;20046;-62
2022/08/26 11:50:09;;;;;;;5.03;1.30;;;;;;;22.72;57.55;101598.22;5046644;28;20053;-62
2022/08/26 11:52:37;;;;;;;5.55;1.20;;;;;;;22.71;57.29;101602.06;5046748;28;20045;-62
2022/08/26 11:55:09;;;;;;;6.00;1.25;;;;;;;22.72;57.13;101601.78;5030470;28;20098;-61
2022/08/26 11:57:44;;;;;;;2.75;1.00;;;;;;;22.74;57.27;101604.25;5027026;28;20050;-61
2022/08/26 12:00:19;;;;;;;6.30;1.55;;;;;;;22.75;57.29;101605.88;5026222;28;20054;-62